Time;durP1;ratioP1;P1;durP2;ratioP2;P2;SDS_P1;SDS_P2;PMS_P1;PMS_P2;Temp;Humidity;BMP_temperature;BMP_pressure;BME280_temperature;BME280_humidity;BME280_pressure;Samples;Min_cycle;Max_cycle;Signal;HPM_P1;HPM_P2
2021/03/27 00:00:56;;;;;;;12.95;11.52;;;22.60;49.00;;;;;;4973896;28;20043;-54
2021/03/27 00:03:58;;;;;;;12.32;11.02;;;22.60;49.00;;;;;;4973922;28;20062;-54
2021/03/27 00:06:41;;;;;;;15.32;11.85;;;22.50;49.00;;;;;;4973956;28;20054;-54
2021/03/27 00:09:29;;;;;;;13.73;11.00;;;22.50;48.90;;;;;;4955654;28;20051;-54
2021/03/27 00:12:11;;;;;;;12.52;11.18;;;22.50;48.90;;;;;;4974043;28;20039;-54
2021/03/27 00:14:43;;;;;;;14.50;10.93;;;22.50;48.90;;;;;;4973988;28;20074;-54
2021/03/27 00:17:18;;;;;;;12.82;10.02;;;22.60;49.00;;;;;;4973852;28;20042;-54
2021/03/27 00:19:51;;;;;;;14.48;10.50;;;22.50;48.90;;;;;;4973876;28;20444;-54
2021/03/27 00:22:27;;;;;;;11.98;9.98;;;22.60;49.00;;;;;;4974190;28;20109;-54
2021/03/27 00:24:59;;;;;;;11.07;9.60;;;22.50;49.10;;;;;;4972981;28;20043;-54
2021/03/27 00:27:30;;;;;;;11.88;9.68;;;22.60;49.10;;;;;;4973793;28;20122;-53
2021/03/27 00:30:01;;;;;;;12.68;10.07;;;22.60;49.10;;;;;;4956504;28;20085;-54
2021/03/27 00:32:42;;;;;;;13.52;9.27;;;22.50;49.10;;;;;;4973860;28;20480;-54
2021/03/27 00:35:17;;;;;;;10.68;9.35;;;22.50;49.20;;;;;;4956411;28;20140;-54
2021/03/27 00:37:45;;;;;;;11.10;9.35;;;22.50;49.20;;;;;;4973869;28;20487;-54
2021/03/27 00:40:16;;;;;;;11.25;9.27;;;22.50;49.20;;;;;;4973612;28;20035;-54
2021/03/27 00:43:17;;;;;;;10.90;9.18;;;22.50;49.30;;;;;;4973606;28;20477;-54
2021/03/27 00:45:47;;;;;;;10.35;8.82;;;22.50;49.40;;;;;;4963497;28;20166;-54
2021/03/27 00:48:18;;;;;;;10.20;8.02;;;22.50;49.40;;;;;;4973512;28;20050;-54
2021/03/27 00:51:03;;;;;;;12.20;8.02;;;22.50;49.40;;;;;;4956321;28;20050;-54
2021/03/27 00:53:34;;;;;;;10.20;8.82;;;22.50;49.50;;;;;;4973973;28;20045;-55
2021/03/27 00:56:22;;;;;;;10.02;8.20;;;22.40;49.40;;;;;;4956181;28;20046;-54
2021/03/27 00:59:05;;;;;;;12.07;8.77;;;22.50;49.50;;;;;;4956299;28;20054;-54
2021/03/27 01:01:42;;;;;;;12.32;7.72;;;22.50;49.60;;;;;;4956136;28;20385;-53
2021/03/27 01:04:33;;;;;;;11.13;8.27;;;22.50;49.60;;;;;;4973309;28;20043;-54
2021/03/27 01:07:21;;;;;;;12.50;9.15;;;22.50;49.70;;;;;;4973406;28;20113;-54
2021/03/27 01:10:31;;;;;;;9.52;7.25;;;22.50;49.80;;;;;;4936806;28;20042;-54
2021/03/27 01:13:22;;;;;;;9.88;7.55;;;22.50;49.90;;;;;;4973530;28;20227;-53
2021/03/27 01:15:59;;;;;;;10.05;8.82;;;22.50;49.90;;;;;;4973377;28;20043;-55
2021/03/27 01:18:34;;;;;;;9.02;7.93;;;22.50;50.10;;;;;;4956049;28;20516;-54
2021/03/27 01:21:06;;;;;;;10.73;9.13;;;22.50;50.70;;;;;;4975431;28;20393;-54
2021/03/27 01:23:33;;;;;;;10.65;7.95;;;22.50;50.20;;;;;;4976934;28;20034;-54
2021/03/27 01:26:03;;;;;;;11.73;9.00;;;22.50;50.20;;;;;;4976829;28;20501;-54
2021/03/27 01:28:38;;;;;;;;;;;22.50;50.30;;;;;;4959867;28;20514;-54
2021/03/27 01:31:07;;;;;;;10.70;8.00;;;22.50;50.20;;;;;;4976642;28;19910;-54
2021/03/27 01:33:41;;;;;;;9.63;8.13;;;22.50;50.20;;;;;;4959430;28;20042;-54
2021/03/27 01:36:20;;;;;;;8.75;7.75;;;22.50;50.30;;;;;;4976721;28;20050;-54
2021/03/27 01:38:59;;;;;;;9.38;8.35;;;22.50;50.40;;;;;;4976551;28;20537;-54
2021/03/27 01:41:25;;;;;;;9.90;8.32;;;22.50;50.40;;;;;;4976650;28;20042;-54
2021/03/27 01:43:55;;;;;;;10.45;8.73;;;22.50;50.40;;;;;;4976385;28;20038;-54
2021/03/27 01:46:35;;;;;;;10.82;8.27;;;22.40;50.30;;;;;;4976665;28;20118;-54
2021/03/27 01:49:27;;;;;;;9.00;8.18;;;22.40;50.60;;;;;;4976410;28;20097;-54
2021/03/27 01:52:15;;;;;;;8.60;7.65;;;22.40;50.50;;;;;;4976553;28;20497;-54
2021/03/27 01:54:55;;;;;;;10.10;8.55;;;22.50;50.50;;;;;;4976082;28;20042;-55
2021/03/27 01:57:44;;;;;;;9.27;7.97;;;22.40;50.60;;;;;;4976460;28;20058;-54
2021/03/27 02:00:15;;;;;;;10.73;8.43;;;22.40;50.60;;;;;;4958734;28;20054;-53
2021/03/27 02:02:50;;;;;;;10.23;8.25;;;22.50;50.70;;;;;;4975991;28;20051;-53
2021/03/27 02:05:22;;;;;;;10.65;8.70;;;22.40;51.30;;;;;;4975920;28;20509;-53
2021/03/27 02:07:59;;;;;;;10.68;8.70;;;22.40;51.00;;;;;;4976495;28;20113;-53
2021/03/27 02:10:40;;;;;;;10.68;8.75;;;22.40;51.00;;;;;;4975796;28;20047;-53
2021/03/27 02:13:07;;;;;;;;;;;22.40;50.90;;;;;;4975416;28;20038;-53
2021/03/27 02:15:40;;;;;;;11.20;9.02;;;22.40;50.70;;;;;;4976207;28;19910;-54
2021/03/27 02:18:21;;;;;;;10.25;8.95;;;22.50;50.60;;;;;;4958604;28;20042;-53
2021/03/27 02:21:05;;;;;;;10.80;9.00;;;22.50;50.90;;;;;;4975818;28;20050;-53
2021/03/27 02:23:46;;;;;;;11.38;9.07;;;22.40;50.90;;;;;;4976087;28;20038;-54
2021/03/27 02:26:21;;;;;;;12.30;8.98;;;22.40;50.90;;;;;;4975889;28;20400;-54
2021/03/27 02:28:55;;;;;;;10.20;9.20;;;22.40;51.00;;;;;;4958036;28;20042;-54
2021/03/27 02:31:31;;;;;;;11.70;8.73;;;22.40;51.10;;;;;;4974844;28;20086;-54
2021/03/27 02:34:10;;;;;;;8.40;7.60;;;22.40;51.10;;;;;;4974296;28;20038;-54
2021/03/27 02:37:01;;;;;;;10.02;9.02;;;22.40;51.10;;;;;;4974272;28;20039;-54
2021/03/27 02:40:06;;;;;;;11.45;9.35;;;22.40;51.00;;;;;;4974267;28;20039;-54
2021/03/27 02:42:52;;;;;;;12.60;9.45;;;22.40;51.20;;;;;;4971612;28;20046;-54
2021/03/27 02:45:25;;;;;;;10.27;9.27;;;22.40;51.20;;;;;;4975516;28;20039;-54
2021/03/27 02:48:30;;;;;;;10.40;9.32;;;22.40;51.10;;;;;;4975259;28;20035;-54
2021/03/27 02:51:20;;;;;;;10.23;8.95;;;22.40;51.10;;;;;;4974860;28;20125;-54
2021/03/27 02:54:16;;;;;;;;;;;22.40;51.10;;;;;;4975632;28;20070;-55
2021/03/27 02:57:18;;;;;;;10.70;9.50;;;22.40;51.00;;;;;;4922881;28;19918;-55
2021/03/27 02:59:56;;;;;;;10.40;9.35;;;22.50;51.00;;;;;;4958261;28;20047;-54
2021/03/27 03:02:37;;;;;;;9.82;8.20;;;22.40;51.00;;;;;;4975388;28;20064;-54
2021/03/27 03:05:22;;;;;;;10.68;9.40;;;22.40;51.00;;;;;;4957817;28;20039;-54
2021/03/27 03:08:04;;;;;;;13.07;9.75;;;22.40;51.20;;;;;;4975340;28;20034;-54
2021/03/27 03:10:47;;;;;;;12.52;9.32;;;22.40;51.10;;;;;;4974705;28;20553;-54
2021/03/27 03:13:20;;;;;;;10.65;8.93;;;22.40;51.10;;;;;;4974991;28;20047;-54
2021/03/27 03:16:02;;;;;;;12.65;10.23;;;22.40;51.10;;;;;;4974857;28;20038;-54
2021/03/27 03:19:08;;;;;;;11.23;9.75;;;22.40;51.80;;;;;;4957753;28;20038;-54
2021/03/27 03:22:12;;;;;;;13.93;10.52;;;22.40;51.20;;;;;;4974090;28;20481;-54
2021/03/27 03:24:46;;;;;;;12.88;10.32;;;22.40;51.20;;;;;;4962151;28;20039;-54
2021/03/27 03:27:49;;;;;;;12.10;10.77;;;22.40;51.20;;;;;;4974726;28;20046;-54
2021/03/27 03:30:36;;;;;;;11.63;9.93;;;22.40;51.20;;;;;;4974635;28;20394;-54
2021/03/27 03:33:23;;;;;;;10.98;9.75;;;22.40;51.20;;;;;;4974732;28;20046;-54
2021/03/27 03:35:55;;;;;;;16.42;11.73;;;22.40;51.20;;;;;;4974617;28;20069;-54
2021/03/27 03:39:14;;;;;;;13.88;10.52;;;22.40;51.20;;;;;;4974722;28;20449;-54
2021/03/27 03:41:54;;;;;;;12.02;9.90;;;22.40;51.20;;;;;;4896229;29;20123;-54
2021/03/27 03:44:49;;;;;;;14.65;10.90;;;22.40;51.10;;;;;;4895851;29;20422;-54
2021/03/27 03:47:30;;;;;;;15.07;9.65;;;22.30;51.00;;;;;;4884025;29;20048;-54
2021/03/27 03:50:14;;;;;;;;;;;22.40;51.10;;;;;;4880985;29;20135;-54
2021/03/27 03:53:02;;;;;;;11.30;10.20;;;22.40;51.00;;;;;;4895902;29;19966;-54
2021/03/27 03:55:47;;;;;;;15.75;10.75;;;22.40;50.90;;;;;;4896029;29;20123;-54
2021/03/27 03:58:22;;;;;;;13.02;10.13;;;22.40;50.90;;;;;;4880427;29;20874;-54
2021/03/27 04:01:03;;;;;;;13.95;10.75;;;22.40;50.90;;;;;;4894604;29;20428;-55
2021/03/27 04:03:53;;;;;;;13.18;10.77;;;22.30;51.00;;;;;;4880181;29;20060;-54
2021/03/27 04:06:24;;;;;;;;;;;22.30;51.00;;;;;;4886662;29;20177;-55
2021/03/27 04:09:25;;;;;;;12.27;9.75;;;22.30;50.90;;;;;;4895947;29;19911;-54
2021/03/27 04:11:54;;;;;;;13.98;10.20;;;22.40;50.80;;;;;;4840155;29;20063;-54
2021/03/27 04:14:35;;;;;;;14.38;10.15;;;22.40;50.80;;;;;;4840235;29;20042;-54
2021/03/27 04:17:06;;;;;;;14.30;9.65;;;22.40;50.80;;;;;;4895830;29;20053;-54
2021/03/27 04:19:43;;;;;;;11.43;9.55;;;22.30;50.80;;;;;;4895856;29;20044;-54
2021/03/27 04:22:27;;;;;;;11.20;9.93;;;22.30;50.80;;;;;;4880113;29;20526;-54
2021/03/27 04:24:58;;;;;;;14.57;9.60;;;22.30;50.80;;;;;;4895711;29;20043;-54
2021/03/27 04:27:32;;;;;;;15.95;11.27;;;22.30;50.90;;;;;;4895810;29;20036;-54
2021/03/27 04:30:13;;;;;;;11.23;10.02;;;22.30;50.90;;;;;;4895602;29;20072;-54
2021/03/27 04:32:57;;;;;;;12.35;9.55;;;22.20;50.80;;;;;;4895702;29;20072;-54
2021/03/27 04:35:33;;;;;;;11.55;9.27;;;22.30;50.80;;;;;;4895596;29;20395;-55
2021/03/27 04:38:08;;;;;;;14.52;9.95;;;22.30;50.90;;;;;;4895617;29;20040;-54
2021/03/27 04:40:43;;;;;;;11.57;9.55;;;22.20;50.80;;;;;;4895515;29;20068;-54
2021/03/27 04:43:27;;;;;;;11.52;9.05;;;22.20;50.80;;;;;;4895699;29;20063;-54
2021/03/27 04:46:08;;;;;;;12.77;9.23;;;22.30;50.80;;;;;;4895650;29;20037;-54
2021/03/27 04:48:48;;;;;;;19.08;10.23;;;22.20;50.80;;;;;;4945030;28;20134;-54
2021/03/27 04:51:33;;;;;;;11.27;9.60;;;22.20;50.80;;;;;;4956650;28;20089;-54
2021/03/27 04:54:25;;;;;;;12.32;8.85;;;22.20;51.40;;;;;;4973704;28;20160;-54
2021/03/27 04:57:18;;;;;;;14.55;9.38;;;22.20;50.70;;;;;;4977613;28;20428;-54
2021/03/27 04:59:47;;;;;;;11.05;8.98;;;22.20;50.60;;;;;;4977465;28;20043;-54
2021/03/27 05:02:23;;;;;;;11.77;10.07;;;22.20;50.70;;;;;;4977228;28;20046;-54
2021/03/27 05:05:11;;;;;;;14.48;9.90;;;22.20;50.70;;;;;;4960275;28;20488;-54
2021/03/27 05:08:08;;;;;;;11.95;8.90;;;22.20;50.70;;;;;;4977253;28;20067;-54
2021/03/27 05:10:59;;;;;;;12.02;9.80;;;22.20;50.60;;;;;;4977057;28;20051;-54
2021/03/27 05:13:38;;;;;;;14.77;9.98;;;22.20;50.60;;;;;;4977332;28;20035;-54
2021/03/27 05:16:28;;;;;;;12.52;9.45;;;22.20;50.60;;;;;;4977059;28;20050;-54
2021/03/27 05:19:06;;;;;;;16.02;11.15;;;22.20;50.60;;;;;;4976658;28;20030;-54
2021/03/27 05:21:38;;;;;;;15.32;11.00;;;22.20;51.20;;;;;;4977309;28;20481;-54
2021/03/27 05:24:29;;;;;;;15.85;10.55;;;22.10;50.60;;;;;;4977019;28;20027;-54
2021/03/27 05:27:09;;;;;;;12.73;10.43;;;22.10;50.60;;;;;;4959856;28;20039;-54
2021/03/27 05:29:44;;;;;;;12.82;10.70;;;22.10;50.60;;;;;;4976872;28;20042;-54
2021/03/27 05:32:34;;;;;;;15.10;10.93;;;22.10;50.60;;;;;;4959596;28;20564;-54
2021/03/27 05:35:23;;;;;;;12.43;10.43;;;22.10;50.60;;;;;;4976616;28;20046;-54
2021/03/27 05:38:10;;;;;;;11.93;9.98;;;22.10;50.60;;;;;;4976671;28;20097;-54
2021/03/27 05:41:17;;;;;;;14.38;10.68;;;22.10;50.60;;;;;;4959286;28;20504;-54
2021/03/27 05:43:56;;;;;;;13.40;10.50;;;22.10;50.60;;;;;;4976643;28;20412;-54
2021/03/27 05:46:28;;;;;;;17.77;11.60;;;22.10;50.40;;;;;;4976550;28;20138;-54
2021/03/27 05:49:30;;;;;;;15.65;11.63;;;22.00;50.40;;;;;;4975605;28;20047;-54
2021/03/27 05:52:18;;;;;;;17.52;10.75;;;22.00;50.40;;;;;;4976435;28;20038;-54
2021/03/27 05:55:13;;;;;;;17.73;10.00;;;22.00;50.30;;;;;;4959337;28;20045;-54
2021/03/27 05:57:42;;;;;;;16.25;10.70;;;22.00;50.30;;;;;;4958983;28;20457;-54
2021/03/27 06:00:10;;;;;;;14.27;11.45;;;21.90;50.00;;;;;;4976266;28;20038;-54
2021/03/27 06:02:43;;;;;;;15.10;10.82;;;21.80;50.00;;;;;;4976042;28;20134;-54
2021/03/27 06:05:23;;;;;;;15.82;10.07;;;21.90;50.20;;;;;;4976191;28;20062;-54
2021/03/27 06:08:13;;;;;;;13.83;10.73;;;21.90;50.30;;;;;;4976130;28;20458;-54
2021/03/27 06:10:57;;;;;;;10.95;8.82;;;21.80;50.10;;;;;;4976208;28;20335;-54
2021/03/27 06:13:31;;;;;;;16.38;9.77;;;21.90;50.20;;;;;;4975937;28;20097;-54
2021/03/27 06:16:03;;;;;;;14.85;10.65;;;21.90;50.20;;;;;;4976133;28;20054;-54
2021/03/27 06:18:35;;;;;;;11.82;8.90;;;21.80;49.90;;;;;;4975934;28;20093;-54
2021/03/27 06:21:20;;;;;;;11.95;9.95;;;21.80;50.10;;;;;;4976000;28;20062;-54
2021/03/27 06:24:10;;;;;;;12.00;9.73;;;21.80;50.20;;;;;;4975187;28;20039;-54
2021/03/27 06:26:45;;;;;;;13.73;10.10;;;21.80;50.00;;;;;;4974630;28;20045;-54
2021/03/27 06:29:55;;;;;;;17.60;10.63;;;21.80;50.00;;;;;;4975538;28;20453;-54
2021/03/27 06:32:49;;;;;;;13.18;9.23;;;21.80;50.00;;;;;;4975497;28;20097;-54
2021/03/27 06:35:27;;;;;;;17.00;10.77;;;21.80;49.90;;;;;;4975396;28;20090;-54
2021/03/27 06:38:27;;;;;;;14.55;8.52;;;21.80;49.70;;;;;;4975165;28;20066;-54
2021/03/27 06:41:05;;;;;;;18.30;10.40;;;21.80;49.80;;;;;;4957984;28;20485;-55
2021/03/27 06:44:09;;;;;;;14.25;9.77;;;21.80;49.70;;;;;;4975439;28;20489;-55
2021/03/27 06:46:54;;;;;;;14.73;10.23;;;21.80;49.60;;;;;;4975585;28;20061;-53
2021/03/27 06:49:32;;;;;;;15.50;10.48;;;21.80;49.60;;;;;;4958019;28;20126;-54
2021/03/27 06:52:23;;;;;;;13.40;9.77;;;21.90;49.80;;;;;;4975436;28;20086;-53
2021/03/27 06:54:52;;;;;;;15.13;11.15;;;21.80;49.50;;;;;;4957892;28;20428;-53
2021/03/27 06:57:56;;;;;;;19.30;11.30;;;21.80;49.40;;;;;;4975093;28;20389;-54
2021/03/27 07:01:00;;;;;;;20.23;11.50;;;21.80;49.40;;;;;;4975139;28;20389;-54
2021/03/27 07:03:51;;;;;;;18.27;12.60;;;21.80;49.40;;;;;;4915002;29;20156;-54
2021/03/27 07:06:38;;;;;;;21.38;14.10;;;21.90;49.30;;;;;;4900462;29;20076;-54
2021/03/27 07:09:42;;;;;;;25.38;14.57;;;21.90;49.20;;;;;;4895560;29;20048;-54
2021/03/27 07:12:47;;;;;;;22.27;14.40;;;21.90;49.30;;;;;;4894241;29;20043;-54
2021/03/27 07:15:46;;;;;;;23.55;16.83;;;21.90;49.30;;;;;;4889797;29;20041;-55
2021/03/27 07:18:31;;;;;;;27.67;18.77;;;21.90;49.40;;;;;;4896159;29;20096;-54
2021/03/27 07:21:06;;;;;;;41.50;28.17;;;21.90;49.40;;;;;;4896416;29;20369;-53
2021/03/27 07:23:36;;;;;;;238.48;213.25;;;21.90;49.50;;;;;;4896630;29;20047;-54
2021/03/27 07:26:38;;;;;;;121.90;104.13;;;21.90;49.60;;;;;;4896202;29;20092;-54
2021/03/27 07:29:40;;;;;;;112.18;95.43;;;21.90;49.70;;;;;;4896234;29;20389;-54
2021/03/27 07:32:38;;;;;;;105.88;83.72;;;21.90;49.90;;;;;;4888230;29;20404;-54
2021/03/27 07:35:22;;;;;;;97.45;77.55;;;21.90;49.80;;;;;;4881253;29;20053;-54
2021/03/27 07:37:56;;;;;;;83.03;67.80;;;21.90;49.70;;;;;;4946386;28;20045;-54
2021/03/27 07:40:32;;;;;;;83.57;68.35;;;21.90;49.70;;;;;;4958812;28;20121;-54
2021/03/27 07:43:22;;;;;;;82.45;63.45;;;21.90;49.80;;;;;;4993999;28;20039;-54
2021/03/27 07:45:57;;;;;;;72.07;52.53;;;21.90;49.80;;;;;;4973967;28;20503;-54
2021/03/27 07:48:25;;;;;;;65.80;53.05;;;21.90;49.80;;;;;;4976484;28;20042;-54
2021/03/27 07:50:59;;;;;;;62.63;48.03;;;21.90;49.80;;;;;;4984141;28;20366;-53
2021/03/27 07:53:57;;;;;;;56.65;46.15;;;21.90;49.80;;;;;;4957080;28;20121;-54
2021/03/27 07:56:43;;;;;;;58.22;45.20;;;22.00;49.80;;;;;;4956944;28;20381;-53
2021/03/27 07:59:46;;;;;;;60.97;42.45;;;22.00;49.70;;;;;;4974402;28;20504;-54
2021/03/27 08:02:49;;;;;;;46.25;33.92;;;22.00;49.70;;;;;;4974070;28;20162;-54
2021/03/27 08:05:39;;;;;;;45.92;34.55;;;22.00;49.70;;;;;;4988432;28;20484;-53
2021/03/27 08:08:23;;;;;;;44.20;31.65;;;22.10;49.60;;;;;;4992447;28;20034;-49
2021/03/27 08:11:17;;;;;;;42.72;31.65;;;22.20;49.70;;;;;;4972314;28;20515;-49
2021/03/27 08:13:56;;;;;;;54.85;37.95;;;22.20;49.70;;;;;;4972007;28;20822;-48
2021/03/27 08:16:44;;;;;;;47.47;31.83;;;22.20;49.60;;;;;;4976415;28;20038;-50
2021/03/27 08:19:35;;;;;;;52.83;41.45;;;22.20;49.50;;;;;;4975053;28;20065;-49
2021/03/27 08:22:07;;;;;;;70.15;50.28;;;22.30;49.40;;;;;;4992735;28;20034;-49
2021/03/27 08:24:49;;;;;;;81.80;62.15;;;22.30;49.20;;;;;;4992775;28;20062;-49
2021/03/27 08:27:18;;;;;;;62.47;50.70;;;22.40;49.20;;;;;;4993036;28;20045;-49
2021/03/27 08:30:02;;;;;;;76.28;49.85;;;22.40;49.10;;;;;;4993201;28;20062;-49
2021/03/27 08:33:04;;;;;;;75.40;57.13;;;22.40;48.90;;;;;;4993864;28;20043;-50
2021/03/27 08:36:07;;;;;;;66.15;42.58;;;22.40;48.90;;;;;;4978161;28;20089;-54
2021/03/27 08:38:42;;;;;;;63.67;45.95;;;22.40;48.60;;;;;;4977854;28;20042;-54
2021/03/27 08:41:38;;;;;;;58.78;36.63;;;22.40;48.50;;;;;;4977267;28;20512;-54
2021/03/27 08:44:04;;;;;;;53.63;38.95;;;22.50;48.30;;;;;;4969088;28;20039;-54
2021/03/27 08:46:52;;;;;;;52.50;36.45;;;22.50;48.00;;;;;;4977257;28;20035;-54
2021/03/27 08:49:24;;;;;;;46.08;33.05;;;22.50;47.80;;;;;;4980900;28;20045;-55
2021/03/27 08:51:59;;;;;;;41.58;27.95;;;22.60;47.80;;;;;;4997067;28;20053;-54
2021/03/27 08:55:02;;;;;;;40.42;28.10;;;22.60;47.90;;;;;;4982394;28;20730;-51
2021/03/27 08:57:28;;;;;;;38.10;23.38;;;22.60;48.10;;;;;;4977163;28;20093;-50
2021/03/27 09:00:13;;;;;;;38.70;21.63;;;22.70;48.30;;;;;;4976481;28;20114;-50
2021/03/27 09:02:47;;;;;;;28.77;18.83;;;22.70;48.50;;;;;;4976203;28;20126;-50
2021/03/27 09:05:32;;;;;;;34.70;19.10;;;22.70;48.50;;;;;;4976413;28;20515;-50
2021/03/27 09:08:07;;;;;;;25.90;17.70;;;22.70;48.60;;;;;;4975767;28;20794;-50
2021/03/27 09:10:43;;;;;;;30.00;19.65;;;22.70;48.80;;;;;;4975837;28;20145;-50
2021/03/27 09:13:42;;;;;;;45.05;19.63;;;22.70;49.00;;;;;;4976258;28;20094;-50
2021/03/27 09:16:41;;;;;;;33.78;17.08;;;22.70;49.30;;;;;;4975847;28;20035;-50
2021/03/27 09:19:48;;;;;;;27.70;16.85;;;22.80;49.50;;;;;;4975377;28;20041;-50
2021/03/27 09:22:38;;;;;;;30.25;16.88;;;22.80;49.60;;;;;;4949497;28;20113;-50
2021/03/27 09:25:13;;;;;;;29.90;16.67;;;22.90;49.90;;;;;;4974693;28;20038;-48
2021/03/27 09:27:48;;;;;;;27.52;16.35;;;22.90;50.00;;;;;;4975836;28;20073;-49
2021/03/27 09:30:36;;;;;;;26.23;15.23;;;23.00;50.10;;;;;;4975293;28;20044;-49
2021/03/27 09:33:29;;;;;;;34.30;20.55;;;23.00;50.10;;;;;;4976201;28;20621;-50
2021/03/27 09:36:16;;;;;;;26.58;18.45;;;23.00;50.00;;;;;;4975562;28;20058;-50
2021/03/27 09:39:19;;;;;;;28.90;16.58;;;23.10;50.00;;;;;;4975962;28;20039;-50
2021/03/27 09:42:04;;;;;;;29.58;15.13;;;23.10;50.00;;;;;;4957054;28;20057;-51
2021/03/27 09:44:46;;;;;;;25.52;17.48;;;23.20;50.30;;;;;;4975610;28;20380;-51
2021/03/27 09:47:50;;;;;;;32.83;16.27;;;23.20;50.50;;;;;;4975851;28;20043;-50
2021/03/27 09:50:18;;;;;;;20.83;11.02;;;23.20;50.40;;;;;;4975782;28;20050;-50
2021/03/27 09:52:54;;;;;;;15.95;9.88;;;23.30;50.80;;;;;;4975680;28;20110;-50
2021/03/27 09:55:47;;;;;;;20.65;8.60;;;23.30;51.10;;;;;;4976024;28;20039;-50
2021/03/27 09:58:31;;;;;;;10.73;6.93;;;23.30;51.50;;;;;;4958094;28;20038;-50
2021/03/27 10:01:39;;;;;;;9.32;6.90;;;23.40;52.00;;;;;;4975756;28;20469;-50
2021/03/27 10:04:18;;;;;;;11.15;6.22;;;23.40;51.70;;;;;;4974963;28;20067;-50
2021/03/27 10:07:09;;;;;;;9.23;5.97;;;23.40;51.70;;;;;;4957977;28;20038;-49
2021/03/27 10:09:51;;;;;;;10.85;5.35;;;23.50;51.60;;;;;;4975515;28;20380;-50
2021/03/27 10:12:43;;;;;;;9.02;5.47;;;23.50;51.50;;;;;;4975075;28;20508;-50
2021/03/27 10:15:15;;;;;;;8.65;5.25;;;23.50;51.60;;;;;;4964665;28;20400;-50
2021/03/27 10:17:48;;;;;;;10.63;5.53;;;23.50;51.50;;;;;;4974922;28;20388;-50
2021/03/27 10:20:33;;;;;;;12.40;5.85;;;23.60;50.90;;;;;;4975063;28;20043;-50
2021/03/27 10:23:16;;;;;;;14.60;4.75;;;23.60;50.70;;;;;;4974955;28;20046;-50
2021/03/27 10:26:03;;;;;;;11.80;5.75;;;23.60;50.70;;;;;;4974937;28;20035;-49
2021/03/27 10:28:37;;;;;;;13.23;5.88;;;23.70;50.70;;;;;;4974736;28;20031;-49
2021/03/27 10:31:17;;;;;;;8.98;5.60;;;23.70;50.50;;;;;;4957782;28;20507;-50
2021/03/27 10:33:48;;;;;;;10.85;5.32;;;23.80;50.50;;;;;;4974576;28;20799;-50
2021/03/27 10:36:14;;;;;;;9.10;4.50;;;23.90;50.40;;;;;;4974372;28;20034;-49
2021/03/27 10:38:57;;;;;;;10.27;5.47;;;24.00;50.40;;;;;;4973675;28;20504;-50
2021/03/27 10:41:24;;;;;;;9.30;5.07;;;24.10;50.30;;;;;;4973457;28;20469;-50
2021/03/27 10:44:23;;;;;;;7.55;4.80;;;24.30;50.20;;;;;;4973562;28;20042;-51
2021/03/27 10:47:10;;;;;;;11.30;5.57;;;24.40;50.10;;;;;;4945049;28;20074;-51
2021/03/27 10:49:59;;;;;;;9.13;5.75;;;24.50;50.00;;;;;;4974447;28;20049;-50
2021/03/27 10:52:44;;;;;;;7.70;5.93;;;24.60;49.70;;;;;;4973588;28;20042;-50
2021/03/27 10:55:13;;;;;;;8.98;6.60;;;24.70;49.60;;;;;;4974670;28;20066;-50
2021/03/27 10:58:12;;;;;;;10.15;8.40;;;24.90;49.50;;;;;;4974490;28;20390;-49
2021/03/27 11:00:59;;;;;;;10.18;7.55;;;25.00;49.20;;;;;;4974308;28;20418;-49
2021/03/27 11:03:48;;;;;;;9.80;7.68;;;25.10;49.20;;;;;;4974303;28;20051;-49
2021/03/27 11:06:29;;;;;;;8.57;6.47;;;25.10;49.20;;;;;;4974479;28;20035;-49
2021/03/27 11:09:13;;;;;;;10.50;6.75;;;25.30;49.30;;;;;;4974446;28;20039;-49
2021/03/27 11:12:03;;;;;;;7.90;6.00;;;25.30;49.10;;;;;;4974481;28;20042;-49
2021/03/27 11:14:48;;;;;;;8.55;6.35;;;25.50;49.20;;;;;;4992960;28;20062;-49
2021/03/27 11:17:32;;;;;;;10.40;6.20;;;25.60;49.10;;;;;;4993693;28;20057;-49
2021/03/27 11:20:35;;;;;;;11.18;6.70;;;25.70;49.00;;;;;;4993569;28;20042;-49
2021/03/27 11:23:23;;;;;;;9.13;6.00;;;25.80;48.80;;;;;;4993454;28;20404;-51
2021/03/27 11:26:24;;;;;;;11.25;6.15;;;25.90;48.60;;;;;;4976144;28;20046;-49
2021/03/27 11:29:27;;;;;;;8.68;5.97;;;26.10;48.70;;;;;;4976144;28;20429;-50
2021/03/27 11:32:00;;;;;;;12.43;6.75;;;26.10;48.30;;;;;;4993719;28;20039;-50
2021/03/27 11:34:42;;;;;;;13.35;6.40;;;26.30;48.30;;;;;;4993554;28;20031;-50
2021/03/27 11:37:16;;;;;;;11.75;6.45;;;26.40;48.30;;;;;;4993579;28;20042;-50
2021/03/27 11:40:06;;;;;;;9.65;5.88;;;26.60;48.10;;;;;;4993041;28;20050;-50
2021/03/27 11:42:41;;;;;;;9.10;6.82;;;26.90;48.20;;;;;;4993359;28;20113;-50
2021/03/27 11:45:13;;;;;;;11.85;6.13;;;27.10;47.80;;;;;;4993045;28;20121;-50
2021/03/27 11:47:54;;;;;;;8.32;5.60;;;27.40;47.30;;;;;;4993211;28;20412;-50
2021/03/27 11:50:36;;;;;;;9.05;5.88;;;27.70;47.00;;;;;;4992982;28;20394;-50
2021/03/27 11:53:14;;;;;;;17.83;7.00;;;28.10;46.60;;;;;;4992905;28;20041;-51
2021/03/27 11:55:52;;;;;;;9.25;6.63;;;28.50;46.20;;;;;;4993152;28;20089;-51
2021/03/27 11:58:28;;;;;;;9.88;7.90;;;28.90;45.50;;;;;;4993073;28;20034;-49
2021/03/27 12:01:12;;;;;;;10.35;5.65;;;29.30;45.30;;;;;;4992930;28;20042;-50
2021/03/27 12:04:05;;;;;;;8.63;4.88;;;29.80;44.10;;;;;;4975236;28;20042;-50
2021/03/27 12:06:52;;;;;;;9.90;7.50;;;30.30;43.20;;;;;;4992865;28;20042;-50
2021/03/27 12:09:36;;;;;;;9.25;4.93;;;30.70;43.00;;;;;;4992751;28;20042;-50
2021/03/27 12:12:24;;;;;;;8.45;4.35;;;31.20;41.90;;;;;;4992811;28;20388;-49
2021/03/27 12:15:12;;;;;;;5.25;3.80;;;31.50;40.60;;;;;;4992637;28;20488;-49
2021/03/27 12:18:08;;;;;;;9.68;4.38;;;32.00;41.70;;;;;;4992588;28;20393;-49
2021/03/27 12:20:56;;;;;;;7.88;4.85;;;32.30;41.40;;;;;;4987070;28;20386;-50
2021/03/27 12:23:47;;;;;;;7.88;3.72;;;32.70;39.80;;;;;;4959515;28;20122;-49
2021/03/27 12:26:28;;;;;;;11.07;4.97;;;33.10;38.00;;;;;;4972281;28;20094;-49
2021/03/27 12:29:10;;;;;;;10.05;5.45;;;33.40;38.40;;;;;;4963591;28;20030;-50
2021/03/27 12:32:03;;;;;;;11.48;5.40;;;33.60;37.70;;;;;;4972809;28;20042;-51
2021/03/27 12:35:03;;;;;;;7.30;3.53;;;33.90;37.10;;;;;;4983660;28;20046;-51
2021/03/27 12:37:43;;;;;;;8.95;3.70;;;34.10;36.40;;;;;;4938952;28;20324;-51
2021/03/27 12:40:30;;;;;;;7.47;3.50;;;34.40;35.30;;;;;;4972890;28;20116;-51
2021/03/27 12:42:56;;;;;;;10.77;3.85;;;34.50;35.00;;;;;;4958441;28;20044;-50
2021/03/27 12:45:27;;;;;;;14.30;4.05;;;34.50;35.30;;;;;;4953770;29;20031;-50
2021/03/27 12:48:14;;;;;;;8.80;3.80;;;34.50;35.00;;;;;;4966670;28;20071;-50
2021/03/27 12:50:47;;;;;;;9.43;3.80;;;34.40;35.10;;;;;;4956082;28;20030;-51
2021/03/27 12:53:33;;;;;;;6.10;3.55;;;34.30;35.10;;;;;;4953448;29;20131;-50
2021/03/27 12:56:22;;;;;;;9.02;3.58;;;34.20;34.80;;;;;;4960393;28;20046;-51
2021/03/27 12:59:12;;;;;;;8.10;3.77;;;34.00;34.90;;;;;;4967262;28;20377;-50
2021/03/27 13:02:02;;;;;;;7.65;4.32;;;33.70;36.30;;;;;;4971056;28;20050;-50
2021/03/27 13:04:48;;;;;;;5.85;4.43;;;33.50;36.20;;;;;;4972662;28;20057;-51
2021/03/27 13:07:24;;;;;;;9.75;5.60;;;33.30;36.80;;;;;;4991100;28;20121;-50
2021/03/27 13:10:18;;;;;;;5.80;5.03;;;33.10;36.60;;;;;;4992459;28;20136;-51
2021/03/27 13:13:22;;;;;;;6.38;5.03;;;32.80;37.60;;;;;;4984938;28;20504;-50
2021/03/27 13:16:12;;;;;;;9.27;4.45;;;32.70;37.60;;;;;;4973425;28;20031;-51
2021/03/27 13:18:52;;;;;;;8.48;3.67;;;32.60;37.70;;;;;;4970154;28;20036;-50
2021/03/27 13:21:37;;;;;;;6.03;4.05;;;32.70;37.80;;;;;;4976681;28;20424;-51
2021/03/27 13:24:09;;;;;;;7.68;4.43;;;32.70;37.40;;;;;;4976486;28;20105;-51
2021/03/27 13:26:36;;;;;;;7.20;5.25;;;32.90;37.40;;;;;;4976288;28;20081;-51
2021/03/27 13:29:37;;;;;;;6.13;4.20;;;33.00;37.20;;;;;;4959436;28;20102;-50
2021/03/27 13:32:17;;;;;;;7.88;5.00;;;33.30;37.60;;;;;;4983189;28;20502;-50
2021/03/27 13:35:05;;;;;;;9.52;5.07;;;33.60;36.60;;;;;;4996122;28;20069;-50
2021/03/27 13:37:33;;;;;;;9.25;5.60;;;33.70;35.90;;;;;;4966671;28;20046;-49
2021/03/27 13:40:02;;;;;;;10.43;5.40;;;33.60;35.90;;;;;;4976371;28;20047;-50
2021/03/27 13:43:19;;;;;;;13.50;5.75;;;33.30;35.80;;;;;;4968527;28;20023;-49
2021/03/27 13:45:58;;;;;;;8.13;4.68;;;32.90;36.40;;;;;;4935660;29;20506;-50
2021/03/27 13:48:27;;;;;;;5.30;4.15;;;32.60;36.80;;;;;;4935783;29;20387;-50
2021/03/27 13:51:16;;;;;;;8.48;4.88;;;32.20;37.20;;;;;;4935692;29;20043;-51
2021/03/27 13:54:13;;;;;;;7.68;5.97;;;31.90;38.30;;;;;;4919482;29;20043;-50
2021/03/27 13:56:59;;;;;;;8.85;6.55;;;31.50;37.80;;;;;;4935269;29;20062;-51
2021/03/27 14:00:12;;;;;;;9.27;4.28;;;31.10;38.10;;;;;;4935389;29;20048;-50